Time;durP1;ratioP1;P1;durP2;ratioP2;P2;SDS_P1;SDS_P2;PMS_P1;PMS_P2;Temp;Humidity;BMP_temperature;BMP_pressure;BME280_temperature;BME280_humidity;BME280_pressure;Samples;Min_cycle;Max_cycle;Signal;HPM_P1;HPM_P2
2021/12/29 00:01:54;;;;;;;3.17;0.50;;;;;;;;;;4886414;29;20514;-60
2021/12/29 00:04:20;;;;;;;1.35;0.68;;;;;;;;;;4886113;29;20091;-60
2021/12/29 00:06:45;;;;;;;0.75;0.35;;;;;;;;;;4887094;29;20044;-60
2021/12/29 00:09:11;;;;;;;1.42;0.47;;;;;;;;;;4887244;29;20764;-61
2021/12/29 00:11:40;;;;;;;2.33;0.50;;;;;;;;;;4885956;29;20052;-61
2021/12/29 00:14:06;;;;;;;1.80;0.40;;;;;;;;;;4887451;29;20701;-61
2021/12/29 00:16:35;;;;;;;2.47;0.68;;;;;;;;;;4885750;29;20064;-63
2021/12/29 00:19:02;;;;;;;4.88;1.02;;;;;;;;;;4887167;29;20546;-62
2021/12/29 00:21:29;;;;;;;3.75;0.60;;;;;;;;;;4882583;29;20048;-62
2021/12/29 00:23:58;;;;;;;3.63;0.65;;;;;;;;;;4886154;29;20664;-62
2021/12/29 00:26:27;;;;;;;0.73;0.40;;;;;;;;;;4886949;29;20040;-65
2021/12/29 00:28:54;;;;;;;1.67;0.50;;;;;;;;;;4885871;29;20178;-60
2021/12/29 00:31:20;;;;;;;2.47;0.70;;;;;;;;;;4884586;29;20032;-59
2021/12/29 00:33:46;;;;;;;3.03;0.70;;;;;;;;;;4885104;29;20053;-61
2021/12/29 00:36:12;;;;;;;2.85;0.70;;;;;;;;;;4883581;29;20032;-61
2021/12/29 00:38:38;;;;;;;2.13;0.77;;;;;;;;;;4886119;29;20056;-60
2021/12/29 00:41:04;;;;;;;0.80;0.63;;;;;;;;;;4884462;29;20093;-62
2021/12/29 00:43:30;;;;;;;1.38;0.45;;;;;;;;;;4885031;29;20529;-61
2021/12/29 00:45:55;;;;;;;4.10;0.80;;;;;;;;;;4878521;29;20770;-60
2021/12/29 00:48:24;;;;;;;2.05;0.63;;;;;;;;;;4884869;29;20064;-63
2021/12/29 00:50:50;;;;;;;3.83;0.93;;;;;;;;;;4886234;29;20040;-62
2021/12/29 00:53:16;;;;;;;2.92;0.88;;;;;;;;;;4885116;29;20047;-59
2021/12/29 00:55:42;;;;;;;2.20;0.80;;;;;;;;;;4885091;29;20545;-61
2021/12/29 00:58:08;;;;;;;3.03;1.02;;;;;;;;;;4884654;29;20041;-62
2021/12/29 01:00:37;;;;;;;3.25;1.13;;;;;;;;;;4884605;29;20968;-63
2021/12/29 01:03:06;;;;;;;4.68;1.05;;;;;;;;;;4859263;29;20080;-62
2021/12/29 01:05:32;;;;;;;2.42;0.85;;;;;;;;;;4883584;29;21410;-57
2021/12/29 01:07:58;;;;;;;2.00;0.45;;;;;;;;;;4885203;29;20375;-61
2021/12/29 01:10:24;;;;;;;3.00;1.10;;;;;;;;;;4885228;29;20049;-62
2021/12/29 01:12:57;;;;;;;2.85;1.05;;;;;;;;;;4884200;29;20051;-60
2021/12/29 01:15:27;;;;;;;1.85;0.80;;;;;;;;;;4883843;29;20044;-63
2021/12/29 01:17:54;;;;;;;2.55;0.93;;;;;;;;;;4884082;29;20103;-64
2021/12/29 01:20:21;;;;;;;5.80;0.93;;;;;;;;;;4883391;29;20045;-62
2021/12/29 01:22:47;;;;;;;3.15;1.23;;;;;;;;;;4885283;29;20048;-59
2021/12/29 01:25:13;;;;;;;2.53;0.77;;;;;;;;;;4884930;29;20151;-60
2021/12/29 01:27:39;;;;;;;0.52;0.52;;;;;;;;;;4885156;29;20044;-60
2021/12/29 01:30:09;;;;;;;1.85;0.63;;;;;;;;;;4884677;29;20055;-61
2021/12/29 01:32:35;;;;;;;1.42;0.90;;;;;;;;;;4883735;29;20036;-61
2021/12/29 01:35:02;;;;;;;2.92;0.80;;;;;;;;;;4884586;29;20124;-62
2021/12/29 01:37:28;;;;;;;1.67;0.57;;;;;;;;;;4883559;29;20048;-63
2021/12/29 01:39:54;;;;;;;2.17;1.05;;;;;;;;;;4883943;29;20037;-60
2021/12/29 01:42:20;;;;;;;1.50;0.43;;;;;;;;;;4883457;29;20045;-61
2021/12/29 01:44:46;;;;;;;2.53;0.55;;;;;;;;;;4884554;29;20084;-62
2021/12/29 01:47:12;;;;;;;0.85;0.40;;;;;;;;;;4877103;29;20045;-62
2021/12/29 01:49:40;;;;;;;3.10;1.25;;;;;;;;;;4883274;29;20045;-62
2021/12/29 01:52:12;;;;;;;3.20;1.33;;;;;;;;;;4882794;29;20541;-61
2021/12/29 01:54:39;;;;;;;2.40;0.82;;;;;;;;;;4883811;29;20061;-57
2021/12/29 01:57:06;;;;;;;2.60;1.13;;;;;;;;;;4885841;29;20045;-61
2021/12/29 01:59:32;;;;;;;1.15;0.60;;;;;;;;;;4884287;29;20162;-61
2021/12/29 02:01:58;;;;;;;2.85;1.00;;;;;;;;;;4886197;29;20147;-61
2021/12/29 02:04:24;;;;;;;4.25;0.75;;;;;;;;;;4882472;29;20463;-60
2021/12/29 02:06:50;;;;;;;1.63;0.80;;;;;;;;;;4885005;29;20091;-56
2021/12/29 02:09:16;;;;;;;1.27;0.52;;;;;;;;;;4884582;29;20451;-62
2021/12/29 02:11:44;;;;;;;6.20;0.85;;;;;;;;;;4883520;29;20047;-58
2021/12/29 02:14:10;;;;;;;4.35;0.70;;;;;;;;;;4885422;29;20550;-64
2021/12/29 02:16:37;;;;;;;1.45;0.80;;;;;;;;;;4877950;29;20040;-58
2021/12/29 02:19:08;;;;;;;2.67;1.02;;;;;;;;;;4884157;29;20684;-62
2021/12/29 02:21:34;;;;;;;8.45;1.23;;;;;;;;;;4883319;29;20040;-61
2021/12/29 02:26:31;;;;;;;3.08;0.80;;;;;;;;;;4885020;29;20045;-61
2021/12/29 02:29:00;;;;;;;0.43;0.35;;;;;;;;;;4892413;29;20071;-61
2021/12/29 02:31:26;;;;;;;3.75;0.77;;;;;;;;;;4884486;29;20059;-59
2021/12/29 02:33:52;;;;;;;2.00;0.80;;;;;;;;;;4885165;29;20049;-59
2021/12/29 02:36:19;;;;;;;1.20;0.57;;;;;;;;;;4869453;29;20898;-60
2021/12/29 02:38:50;;;;;;;3.05;0.65;;;;;;;;;;4888021;29;20072;-59
2021/12/29 02:41:16;;;;;;;1.65;0.73;;;;;;;;;;4886827;29;20056;-60
2021/12/29 02:43:58;;;;;;;1.05;0.45;;;;;;;;;;4883879;29;20041;-60
2021/12/29 02:46:24;;;;;;;5.60;0.80;;;;;;;;;;4882539;29;20049;-60
2021/12/29 02:48:58;;;;;;;4.75;1.02;;;;;;;;;;4884306;29;20068;-61
2021/12/29 02:51:24;;;;;;;3.60;1.50;;;;;;;;;;4882576;29;20048;-62
2021/12/29 02:53:50;;;;;;;1.48;0.60;;;;;;;;;;4883614;29;20059;-63
2021/12/29 02:56:16;;;;;;;4.82;1.15;;;;;;;;;;4884127;29;20629;-61
2021/12/29 02:58:42;;;;;;;3.40;1.02;;;;;;;;;;4872251;29;20037;-60
2021/12/29 03:01:12;;;;;;;3.85;1.58;;;;;;;;;;4887588;29;20036;-62
2021/12/29 03:03:38;;;;;;;2.85;1.45;;;;;;;;;;4886999;29;20053;-63
2021/12/29 03:06:05;;;;;;;1.48;0.80;;;;;;;;;;4887215;29;20045;-62
2021/12/29 03:08:31;;;;;;;4.15;1.20;;;;;;;;;;4886109;29;20056;-61
2021/12/29 03:10:57;;;;;;;4.85;1.50;;;;;;;;;;4881980;29;20516;-60
2021/12/29 03:13:23;;;;;;;3.95;0.95;;;;;;;;;;4888958;29;20044;-61
2021/12/29 03:15:49;;;;;;;1.90;0.70;;;;;;;;;;4875358;29;20049;-61
2021/12/29 03:18:16;;;;;;;3.28;1.05;;;;;;;;;;4888479;29;20045;-61
2021/12/29 03:20:42;;;;;;;3.90;1.20;;;;;;;;;;4886882;29;20033;-62
2021/12/29 03:23:08;;;;;;;2.30;0.85;;;;;;;;;;4888368;29;20052;-61
2021/12/29 03:25:34;;;;;;;2.85;0.88;;;;;;;;;;4889996;29;20064;-62
2021/12/29 03:28:00;;;;;;;2.03;0.75;;;;;;;;;;4895651;29;20049;-64
2021/12/29 03:30:28;;;;;;;2.65;1.00;;;;;;;;;;4881834;29;20044;-64
2021/12/29 03:33:03;;;;;;;3.20;1.15;;;;;;;;;;4901475;29;20040;-60
2021/12/29 03:35:32;;;;;;;3.17;1.00;;;;;;;;;;4887143;29;20397;-62
2021/12/29 03:37:59;;;;;;;3.25;1.17;;;;;;;;;;4886118;29;20127;-64
2021/12/29 03:40:25;;;;;;;4.60;1.13;;;;;;;;;;4887073;29;20159;-61
2021/12/29 03:42:52;;;;;;;1.73;0.70;;;;;;;;;;4885675;29;20038;-60
2021/12/29 03:45:17;;;;;;;3.08;1.08;;;;;;;;;;4879019;29;20059;-61
2021/12/29 03:47:43;;;;;;;2.05;0.80;;;;;;;;;;4885041;29;20048;-58
2021/12/29 03:50:09;;;;;;;1.20;0.63;;;;;;;;;;4861446;29;20367;-61
2021/12/29 03:52:35;;;;;;;3.92;0.90;;;;;;;;;;4885410;29;20064;-62
2021/12/29 03:55:01;;;;;;;1.85;0.75;;;;;;;;;;4887505;29;20104;-63
2021/12/29 03:57:27;;;;;;;0.82;0.50;;;;;;;;;;4886459;29;20036;-60
2021/12/29 03:59:53;;;;;;;1.30;0.55;;;;;;;;;;4888310;29;20130;-63
2021/12/29 04:02:18;;;;;;;2.33;0.88;;;;;;;;;;4885752;29;20045;-63
2021/12/29 04:04:48;;;;;;;1.13;0.63;;;;;;;;;;4890928;29;20048;-61
2021/12/29 04:07:14;;;;;;;1.67;0.45;;;;;;;;;;4887196;29;20052;-63
2021/12/29 04:09:40;;;;;;;1.45;0.70;;;;;;;;;;4882968;29;20092;-63
2021/12/29 04:12:06;;;;;;;0.55;0.40;;;;;;;;;;4893408;29;20383;-64
2021/12/29 04:14:32;;;;;;;0.25;0.20;;;;;;;;;;4886660;29;20037;-63
2021/12/29 04:17:07;;;;;;;3.70;0.80;;;;;;;;;;4886836;29;20048;-63
2021/12/29 04:22:20;;;;;;;0.77;0.50;;;;;;;;;;4886516;29;20088;-59
2021/12/29 04:24:46;;;;;;;0.20;0.20;;;;;;;;;;4886253;29;20838;-59
2021/12/29 04:27:12;;;;;;;0.25;0.25;;;;;;;;;;4886108;29;20039;-61
2021/12/29 04:29:37;;;;;;;0.43;0.43;;;;;;;;;;4886514;29;20107;-59
2021/12/29 04:32:03;;;;;;;2.13;0.82;;;;;;;;;;4885638;29;20049;-61
2021/12/29 04:34:29;;;;;;;0.65;0.40;;;;;;;;;;4886374;29;20053;-58
2021/12/29 04:36:55;;;;;;;0.52;0.30;;;;;;;;;;4886157;29;20036;-59
2021/12/29 04:39:21;;;;;;;1.00;0.57;;;;;;;;;;4884338;29;20055;-58
2021/12/29 04:41:47;;;;;;;1.48;1.00;;;;;;;;;;4884494;29;20051;-59
2021/12/29 04:44:13;;;;;;;4.13;0.93;;;;;;;;;;4884982;29;20047;-59
2021/12/29 04:46:43;;;;;;;0.38;0.30;;;;;;;;;;4884846;29;20104;-62
2021/12/29 04:49:12;;;;;;;2.08;0.80;;;;;;;;;;4885147;29;20462;-59
2021/12/29 04:51:44;;;;;;;0.75;0.40;;;;;;;;;;4883502;29;20088;-56
2021/12/29 04:54:10;;;;;;;4.95;0.95;;;;;;;;;;4885240;29;20062;-59
2021/12/29 04:56:36;;;;;;;0.80;0.80;;;;;;;;;;4883934;29;21063;-58
2021/12/29 04:59:02;;;;;;;0.20;0.20;;;;;;;;;;4883279;29;20045;-60
2021/12/29 05:01:29;;;;;;;0.25;0.25;;;;;;;;;;4883762;29;20044;-59
2021/12/29 05:03:55;;;;;;;0.52;0.40;;;;;;;;;;4884203;29;20057;-60
2021/12/29 05:09:05;;;;;;;1.08;0.85;;;;;;;;;;4885145;29;20060;-61
2021/12/29 05:11:31;;;;;;;0.20;0.20;;;;;;;;;;4883583;29;20033;-59
2021/12/29 05:13:57;;;;;;;0.35;0.35;;;;;;;;;;4886398;29;20562;-60
2021/12/29 05:16:27;;;;;;;0.77;0.73;;;;;;;;;;4884685;29;20067;-61
2021/12/29 05:18:55;;;;;;;0.20;0.20;;;;;;;;;;4884734;29;20589;-59
2021/12/29 05:21:20;;;;;;;0.20;0.20;;;;;;;;;;4883492;29;21739;-61
2021/12/29 05:23:46;;;;;;;0.47;0.32;;;;;;;;;;4878794;29;20040;-61
2021/12/29 05:26:12;;;;;;;1.90;0.40;;;;;;;;;;4884982;29;21105;-60
2021/12/29 05:28:38;;;;;;;0.20;0.20;;;;;;;;;;4883989;29;20406;-59
2021/12/29 05:31:04;;;;;;;0.50;0.50;;;;;;;;;;4883170;29;20125;-60
2021/12/29 05:33:29;;;;;;;0.88;0.45;;;;;;;;;;4883636;29;20043;-59
2021/12/29 05:35:55;;;;;;;4.18;0.93;;;;;;;;;;4884475;29;20044;-60
2021/12/29 05:38:21;;;;;;;2.90;0.45;;;;;;;;;;4883633;29;20041;-59
2021/12/29 05:40:48;;;;;;;4.53;0.98;;;;;;;;;;4883664;29;20421;-60
2021/12/29 05:43:14;;;;;;;0.20;0.20;;;;;;;;;;4884357;29;20056;-59
2021/12/29 05:45:40;;;;;;;0.82;0.82;;;;;;;;;;4884494;29;20040;-60
2021/12/29 05:48:06;;;;;;;2.60;0.55;;;;;;;;;;4883883;29;21233;-59
2021/12/29 05:50:32;;;;;;;0.95;0.60;;;;;;;;;;4882852;29;20045;-59
2021/12/29 05:52:59;;;;;;;1.83;0.52;;;;;;;;;;4883392;29;20045;-59
2021/12/29 05:55:25;;;;;;;1.20;0.50;;;;;;;;;;4883527;29;20112;-60
2021/12/29 05:57:51;;;;;;;2.20;1.00;;;;;;;;;;4883520;29;20072;-61
2021/12/29 06:00:17;;;;;;;1.33;0.60;;;;;;;;;;4882744;29;20053;-59
2021/12/29 06:02:44;;;;;;;2.35;0.80;;;;;;;;;;4883621;29;20123;-58
2021/12/29 06:05:10;;;;;;;1.38;0.65;;;;;;;;;;4884887;29;20068;-59
2021/12/29 06:07:37;;;;;;;1.10;0.68;;;;;;;;;;4883336;29;20056;-58
2021/12/29 06:10:03;;;;;;;1.45;0.63;;;;;;;;;;4882181;29;20060;-59
2021/12/29 06:12:29;;;;;;;3.58;1.00;;;;;;;;;;4883520;29;20053;-59
2021/12/29 06:14:55;;;;;;;1.73;0.52;;;;;;;;;;4884806;29;20104;-58
2021/12/29 06:17:21;;;;;;;2.88;0.80;;;;;;;;;;4883624;29;20521;-59
2021/12/29 06:19:47;;;;;;;1.67;0.60;;;;;;;;;;4885074;29;20048;-58
2021/12/29 06:22:13;;;;;;;0.38;0.35;;;;;;;;;;4885015;29;20921;-59
2021/12/29 06:24:39;;;;;;;0.30;0.30;;;;;;;;;;4884469;29;20044;-59
2021/12/29 06:27:05;;;;;;;1.55;0.85;;;;;;;;;;4884856;29;20048;-58
2021/12/29 06:29:31;;;;;;;4.03;0.47;;;;;;;;;;4883612;29;20054;-59
2021/12/29 06:31:57;;;;;;;1.40;0.73;;;;;;;;;;4883806;29;20040;-59
2021/12/29 06:34:23;;;;;;;2.83;1.23;;;;;;;;;;4883677;29;20124;-58
2021/12/29 06:36:49;;;;;;;2.08;1.05;;;;;;;;;;4883705;29;20049;-59
2021/12/29 06:39:15;;;;;;;1.13;0.70;;;;;;;;;;4868428;29;20060;-58
2021/12/29 06:41:41;;;;;;;1.13;0.82;;;;;;;;;;4883242;29;20719;-59
2021/12/29 06:44:07;;;;;;;1.58;0.75;;;;;;;;;;4880294;29;20052;-58
2021/12/29 06:46:34;;;;;;;2.65;1.05;;;;;;;;;;4887423;29;20517;-59
2021/12/29 06:49:00;;;;;;;0.45;0.30;;;;;;;;;;4884072;29;20053;-59
2021/12/29 06:51:26;;;;;;;1.38;0.68;;;;;;;;;;4882701;29;20045;-60
2021/12/29 06:53:57;;;;;;;0.63;0.40;;;;;;;;;;4883530;29;20048;-59
2021/12/29 06:56:23;;;;;;;3.88;0.45;;;;;;;;;;4882401;29;20151;-58
2021/12/29 06:58:49;;;;;;;2.22;0.70;;;;;;;;;;4883715;29;22041;-59
2021/12/29 07:01:16;;;;;;;1.00;0.60;;;;;;;;;;4884331;29;20040;-59
2021/12/29 07:03:42;;;;;;;2.20;0.63;;;;;;;;;;4884112;29;20394;-58
2021/12/29 07:06:08;;;;;;;0.20;0.20;;;;;;;;;;4874133;29;20642;-58
2021/12/29 07:08:34;;;;;;;0.95;0.40;;;;;;;;;;4884658;29;20063;-59
2021/12/29 07:11:01;;;;;;;4.38;0.52;;;;;;;;;;4885104;29;20075;-59
2021/12/29 07:13:27;;;;;;;2.60;0.80;;;;;;;;;;4883224;29;20056;-58
2021/12/29 07:15:52;;;;;;;2.10;0.93;;;;;;;;;;4884426;29;20064;-57
2021/12/29 07:18:18;;;;;;;0.38;0.38;;;;;;;;;;4883425;29;20842;-60
2021/12/29 07:20:44;;;;;;;1.67;0.50;;;;;;;;;;4884625;29;20044;-58
2021/12/29 07:23:11;;;;;;;2.00;0.65;;;;;;;;;;4881575;29;20076;-57
2021/12/29 07:25:37;;;;;;;3.75;0.77;;;;;;;;;;4883754;29;20053;-58
2021/12/29 07:28:03;;;;;;;0.20;0.20;;;;;;;;;;4883895;29;20094;-58
2021/12/29 07:30:28;;;;;;;0.38;0.38;;;;;;;;;;4882575;29;20040;-56
2021/12/29 07:32:54;;;;;;;1.33;0.65;;;;;;;;;;4884292;29;20051;-58
2021/12/29 07:35:20;;;;;;;5.32;0.75;;;;;;;;;;4884627;29;20101;-57
2021/12/29 07:37:46;;;;;;;0.75;0.40;;;;;;;;;;4884250;29;20474;-58
2021/12/29 07:40:12;;;;;;;3.08;0.88;;;;;;;;;;4883125;29;20051;-55
2021/12/29 07:42:39;;;;;;;1.17;0.63;;;;;;;;;;4884600;29;20568;-57
2021/12/29 07:45:09;;;;;;;0.60;0.60;;;;;;;;;;4888259;29;20067;-56
2021/12/29 07:47:36;;;;;;;3.67;1.35;;;;;;;;;;4885003;29;20600;-58
2021/12/29 07:50:04;;;;;;;1.17;0.68;;;;;;;;;;4887455;29;20041;-57
2021/12/29 07:52:30;;;;;;;5.22;1.15;;;;;;;;;;4885078;29;20056;-59
2021/12/29 07:54:55;;;;;;;4.07;1.05;;;;;;;;;;4887285;29;20513;-58
2021/12/29 07:57:21;;;;;;;0.20;0.20;;;;;;;;;;4883978;29;20096;-58
2021/12/29 07:59:47;;;;;;;0.30;0.30;;;;;;;;;;4882275;29;20044;-57
2021/12/29 08:02:16;;;;;;;14.52;0.82;;;;;;;;;;4887005;29;20048;-57
2021/12/29 08:04:43;;;;;;;0.47;0.38;;;;;;;;;;4887558;29;20076;-58
2021/12/29 08:07:08;;;;;;;0.35;0.30;;;;;;;;;;4888089;29;20379;-57
2021/12/29 08:09:34;;;;;;;0.30;0.30;;;;;;;;;;4886832;29;20059;-57
2021/12/29 08:12:00;;;;;;;0.30;0.30;;;;;;;;;;4887793;29;20060;-58
2021/12/29 08:14:26;;;;;;;0.35;0.30;;;;;;;;;;4885689;29;20048;-58
2021/12/29 08:16:52;;;;;;;2.28;1.48;;;;;;;;;;4888025;29;20544;-54
2021/12/29 08:19:18;;;;;;;0.73;0.30;;;;;;;;;;4889024;29;20604;-55
2021/12/29 08:21:43;;;;;;;1.27;0.93;;;;;;;;;;4890294;29;20115;-54
2021/12/29 08:24:09;;;;;;;0.30;0.30;;;;;;;;;;4891017;29;20041;-58
2021/12/29 08:26:35;;;;;;;0.40;0.30;;;;;;;;;;4888829;29;20033;-57
2021/12/29 08:29:01;;;;;;;0.55;0.38;;;;;;;;;;4890984;29;20053;-57
2021/12/29 08:31:27;;;;;;;0.30;0.30;;;;;;;;;;4889101;29;20045;-59
2021/12/29 08:33:56;;;;;;;0.63;0.30;;;;;;;;;;4889612;29;20044;-58
2021/12/29 08:36:24;;;;;;;0.32;0.32;;;;;;;;;;4890240;29;20116;-57
2021/12/29 08:38:50;;;;;;;0.38;0.32;;;;;;;;;;4890791;29;20040;-57
2021/12/29 08:41:16;;;;;;;0.82;0.45;;;;;;;;;;4889927;29;20119;-58
2021/12/29 08:43:42;;;;;;;1.95;0.57;;;;;;;;;;4890291;29;20503;-58
2021/12/29 08:46:08;;;;;;;1.40;0.82;;;;;;;;;;4890017;29;20498;-59
2021/12/29 08:48:37;;;;;;;0.20;0.20;;;;;;;;;;4888762;29;20067;-59
2021/12/29 08:51:03;;;;;;;1.10;0.82;;;;;;;;;;4887843;29;20052;-59
2021/12/29 08:53:31;;;;;;;0.38;0.35;;;;;;;;;;4887834;29;20877;-58
2021/12/29 08:55:57;;;;;;;0.20;0.20;;;;;;;;;;4888184;29;20044;-58
2021/12/29 08:58:26;;;;;;;0.20;0.20;;;;;;;;;;4888478;29;20080;-59
2021/12/29 09:00:52;;;;;;;0.43;0.40;;;;;;;;;;4888052;29;20772;-57
2021/12/29 09:03:19;;;;;;;0.50;0.50;;;;;;;;;;4883795;29;20108;-59
2021/12/29 09:05:45;;;;;;;1.85;1.00;;;;;;;;;;4887995;29;20356;-57
2021/12/29 09:08:10;;;;;;;0.47;0.30;;;;;;;;;;4888050;29;20051;-59
2021/12/29 09:10:36;;;;;;;0.55;0.35;;;;;;;;;;4887054;29;20052;-59
2021/12/29 09:13:03;;;;;;;0.32;0.30;;;;;;;;;;4887983;29;20363;-57
2021/12/29 09:15:29;;;;;;;3.50;2.05;;;;;;;;;;4887353;29;20569;-59
2021/12/29 09:17:55;;;;;;;1.80;0.95;;;;;;;;;;4888410;29;20040;-59
2021/12/29 09:20:26;;;;;;;0.95;0.73;;;;;;;;;;4887293;29;20053;-59
2021/12/29 09:22:54;;;;;;;2.28;2.05;;;;;;;;;;4885996;29;20524;-58
2021/12/29 09:25:21;;;;;;;1.80;0.73;;;;;;;;;;4885273;29;20036;-58
2021/12/29 09:27:49;;;;;;;0.70;0.50;;;;;;;;;;4886014;29;20840;-57
2021/12/29 09:30:17;;;;;;;1.98;1.20;;;;;;;;;;4884278;29;20526;-58
2021/12/29 09:32:43;;;;;;;0.40;0.30;;;;;;;;;;4884275;29;20096;-56
2021/12/29 09:35:09;;;;;;;0.22;0.22;;;;;;;;;;4885737;29;20053;-55
2021/12/29 09:37:35;;;;;;;0.30;0.30;;;;;;;;;;4884455;29;20059;-58
2021/12/29 09:40:00;;;;;;;0.20;0.20;;;;;;;;;;4884830;29;20510;-59
2021/12/29 09:42:26;;;;;;;0.85;0.85;;;;;;;;;;4883615;29;20068;-59
2021/12/29 09:44:52;;;;;;;0.32;0.30;;;;;;;;;;4884068;29;20108;-58
2021/12/29 09:47:19;;;;;;;0.55;0.30;;;;;;;;;;4879523;29;20076;-60
2021/12/29 09:49:44;;;;;;;0.30;0.30;;;;;;;;;;4885655;29;20040;-58
2021/12/29 09:52:10;;;;;;;0.32;0.30;;;;;;;;;;4889564;29;20044;-59
2021/12/29 09:54:36;;;;;;;0.52;0.30;;;;;;;;;;4885457;29;20571;-59
2021/12/29 09:57:03;;;;;;;0.32;0.32;;;;;;;;;;4884521;29;20044;-58
2021/12/29 09:59:29;;;;;;;0.30;0.30;;;;;;;;;;4886845;29;20055;-59
2021/12/29 10:01:57;;;;;;;0.30;0.30;;;;;;;;;;4884688;29;20048;-58
2021/12/29 10:04:23;;;;;;;0.20;0.20;;;;;;;;;;4879960;29;20139;-58
2021/12/29 10:06:49;;;;;;;0.30;0.30;;;;;;;;;;4884282;29;20060;-55
2021/12/29 10:09:17;;;;;;;0.30;0.30;;;;;;;;;;4885655;29;20159;-58
2021/12/29 10:11:44;;;;;;;0.50;0.50;;;;;;;;;;4883228;29;20049;-58
2021/12/29 10:14:12;;;;;;;0.25;0.25;;;;;;;;;;4885353;29;20247;-58
2021/12/29 10:16:38;;;;;;;0.30;0.30;;;;;;;;;;4884939;29;20044;-58
2021/12/29 10:19:06;;;;;;;0.45;0.40;;;;;;;;;;4883304;29;20052;-58
2021/12/29 10:21:33;;;;;;;0.30;0.30;;;;;;;;;;4887055;29;20052;-58
2021/12/29 10:24:01;;;;;;;0.75;0.75;;;;;;;;;;4885319;29;20054;-58
2021/12/29 10:26:31;;;;;;;0.30;0.30;;;;;;;;;;4883249;29;22382;-59
2021/12/29 10:29:00;;;;;;;0.43;0.43;;;;;;;;;;4886463;29;20458;-58
2021/12/29 10:31:28;;;;;;;0.82;0.82;;;;;;;;;;4886068;29;20430;-56
2021/12/29 10:33:55;;;;;;;0.45;0.45;;;;;;;;;;4886626;29;20237;-58
2021/12/29 10:36:26;;;;;;;0.30;0.30;;;;;;;;;;4883528;29;20044;-58
2021/12/29 10:38:52;;;;;;;1.90;1.33;;;;;;;;;;4878507;29;20049;-57
2021/12/29 10:41:17;;;;;;;0.30;0.30;;;;;;;;;;4882452;29;20060;-58
2021/12/29 10:43:54;;;;;;;0.30;0.30;;;;;;;;;;4884577;29;20032;-58
2021/12/29 10:46:20;;;;;;;0.30;0.30;;;;;;;;;;4882854;29;20044;-59
2021/12/29 10:48:50;;;;;;;0.30;0.30;;;;;;;;;;4884347;29;20139;-56
2021/12/29 10:51:16;;;;;;;0.30;0.30;;;;;;;;;;4884300;29;20076;-58
2021/12/29 10:53:42;;;;;;;0.73;0.65;;;;;;;;;;4883637;29;20132;-59
2021/12/29 10:56:29;;;;;;;0.20;0.20;;;;;;;;;;4883563;29;20041;-58
2021/12/29 10:58:55;;;;;;;0.95;0.95;;;;;;;;;;4884217;29;20494;-58
2021/12/29 11:01:22;;;;;;;0.57;0.57;;;;;;;;;;4883616;29;20045;-57
2021/12/29 11:03:49;;;;;;;2.22;0.88;;;;;;;;;;4884219;29;20742;-58
2021/12/29 11:06:16;;;;;;;0.30;0.30;;;;;;;;;;4883171;29;20055;-56
2021/12/29 11:08:48;;;;;;;0.45;0.45;;;;;;;;;;4884188;29;20139;-57
2021/12/29 11:11:14;;;;;;;0.30;0.30;;;;;;;;;;4883694;29;20056;-59
2021/12/29 11:13:41;;;;;;;0.85;0.82;;;;;;;;;;4883488;29;20096;-59
2021/12/29 11:16:09;;;;;;;2.10;0.90;;;;;;;;;;4883736;29;20161;-57
2021/12/29 11:18:43;;;;;;;0.32;0.30;;;;;;;;;;4886743;29;20834;-58
2021/12/29 11:21:09;;;;;;;0.30;0.30;;;;;;;;;;4887957;29;20192;-58
2021/12/29 11:23:41;;;;;;;0.30;0.30;;;;;;;;;;4886972;29;20165;-58
2021/12/29 11:26:11;;;;;;;0.60;0.60;;;;;;;;;;4887282;29;20468;-58
2021/12/29 11:28:38;;;;;;;0.30;0.30;;;;;;;;;;4886130;29;20099;-59
2021/12/29 11:31:06;;;;;;;1.85;0.95;;;;;;;;;;4886571;29;20052;-57
2021/12/29 11:33:33;;;;;;;0.30;0.30;;;;;;;;;;4882966;29;20048;-58
2021/12/29 11:35:59;;;;;;;0.30;0.30;;;;;;;;;;4887183;29;20045;-58
2021/12/29 11:38:26;;;;;;;0.30;0.30;;;;;;;;;;4886377;29;20510;-58
2021/12/29 11:40:53;;;;;;;0.57;0.50;;;;;;;;;;4887741;29;20601;-57
2021/12/29 11:43:19;;;;;;;0.30;0.30;;;;;;;;;;4887013;29;20096;-59
2021/12/29 11:45:50;;;;;;;0.30;0.30;;;;;;;;;;4886463;29;20044;-59
2021/12/29 11:48:21;;;;;;;0.30;0.30;;;;;;;;;;4887732;29;20052;-57
2021/12/29 11:50:48;;;;;;;0.30;0.30;;;;;;;;;;4888478;29;20038;-57
2021/12/29 11:53:32;;;;;;;0.50;0.50;;;;;;;;;;4887772;29;20047;-58
2021/12/29 11:56:00;;;;;;;0.30;0.30;;;;;;;;;;4888676;29;20584;-56
2021/12/29 11:58:30;;;;;;;0.22;0.22;;;;;;;;;;4887300;29;20130;-58
2021/12/29 12:01:16;;;;;;;0.70;0.65;;;;;;;;;;4888209;29;20045;-59
2021/12/29 12:03:44;;;;;;;0.35;0.30;;;;;;;;;;4887887;29;20060;-58
2021/12/29 12:06:29;;;;;;;1.08;0.82;;;;;;;;;;4887232;29;20049;-57
2021/12/29 12:09:07;;;;;;;0.30;0.30;;;;;;;;;;4885790;29;20061;-58
2021/12/29 12:11:35;;;;;;;0.30;0.30;;;;;;;;;;4886714;29;20075;-56
2021/12/29 12:14:00;;;;;;;0.32;0.32;;;;;;;;;;4888253;29;20070;-59
2021/12/29 12:16:27;;;;;;;0.30;0.30;;;;;;;;;;4888036;29;20486;-59
2021/12/29 12:18:58;;;;;;;0.50;0.50;;;;;;;;;;4887394;29;20136;-59
2021/12/29 12:21:24;;;;;;;0.55;0.55;;;;;;;;;;4885847;29;20185;-59
2021/12/29 12:23:50;;;;;;;0.30;0.30;;;;;;;;;;4887246;29;20139;-58
2021/12/29 12:26:20;;;;;;;1.73;0.70;;;;;;;;;;4886049;29;20052;-59
2021/12/29 12:28:47;;;;;;;0.22;0.22;;;;;;;;;;4886231;29;20167;-59
2021/12/29 12:31:26;;;;;;;0.30;0.30;;;;;;;;;;4885798;29;20033;-58
2021/12/29 12:33:53;;;;;;;0.57;0.57;;;;;;;;;;4884917;29;20679;-58
2021/12/29 12:36:19;;;;;;;0.30;0.30;;;;;;;;;;4885123;29;20063;-57
2021/12/29 12:38:47;;;;;;;0.30;0.30;;;;;;;;;;4876876;29;20047;-58
2021/12/29 12:41:17;;;;;;;0.30;0.30;;;;;;;;;;4878496;29;20140;-59
2021/12/29 12:43:59;;;;;;;0.30;0.30;;;;;;;;;;4886281;29;20052;-58
2021/12/29 12:46:33;;;;;;;0.20;0.20;;;;;;;;;;4885989;29;20430;-57
2021/12/29 12:49:00;;;;;;;0.30;0.30;;;;;;;;;;4885889;29;20056;-59
2021/12/29 12:51:26;;;;;;;0.30;0.30;;;;;;;;;;4893257;29;20124;-59
2021/12/29 12:53:52;;;;;;;0.30;0.30;;;;;;;;;;4885725;29;20541;-58
2021/12/29 12:56:20;;;;;;;0.80;0.80;;;;;;;;;;4890645;29;20429;-58
2021/12/29 12:58:48;;;;;;;0.40;0.40;;;;;;;;;;4885278;29;20712;-58
2021/12/29 13:01:16;;;;;;;0.30;0.30;;;;;;;;;;4885760;29;20044;-58
2021/12/29 13:03:43;;;;;;;0.35;0.35;;;;;;;;;;4884766;29;20056;-57
2021/12/29 13:06:22;;;;;;;0.30;0.30;;;;;;;;;;4886212;29;20092;-58
2021/12/29 13:08:48;;;;;;;0.30;0.30;;;;;;;;;;4883764;29;20068;-57
2021/12/29 13:11:16;;;;;;;0.30;0.30;;;;;;;;;;4876246;29;20431;-57
2021/12/29 13:13:44;;;;;;;0.30;0.30;;;;;;;;;;4885680;29;20565;-58
2021/12/29 13:16:12;;;;;;;0.30;0.30;;;;;;;;;;4885944;29;20088;-58
2021/12/29 13:18:39;;;;;;;0.30;0.30;;;;;;;;;;4883808;29;20060;-58
2021/12/29 13:21:09;;;;;;;0.30;0.30;;;;;;;;;;4883396;29;20230;-59
2021/12/29 13:23:36;;;;;;;0.30;0.30;;;;;;;;;;4884266;29;20140;-58
2021/12/29 13:26:02;;;;;;;0.30;0.30;;;;;;;;;;4886243;29;20093;-58
2021/12/29 13:28:29;;;;;;;0.77;0.77;;;;;;;;;;4885294;29;20045;-58
2021/12/29 13:30:56;;;;;;;0.30;0.30;;;;;;;;;;4884577;29;20172;-58
2021/12/29 13:33:23;;;;;;;0.35;0.30;;;;;;;;;;4882257;29;20076;-56
2021/12/29 13:35:50;;;;;;;0.30;0.30;;;;;;;;;;4885951;29;20037;-60
2021/12/29 13:38:17;;;;;;;0.30;0.30;;;;;;;;;;4882944;29;20124;-57
2021/12/29 13:40:46;;;;;;;0.30;0.30;;;;;;;;;;4880559;29;20075;-57
2021/12/29 13:43:17;;;;;;;0.50;0.30;;;;;;;;;;4885973;29;20111;-57
2021/12/29 13:45:43;;;;;;;0.40;0.40;;;;;;;;;;4885495;29;20048;-58
2021/12/29 13:48:17;;;;;;;0.30;0.30;;;;;;;;;;4886171;29;20052;-57
2021/12/29 13:51:03;;;;;;;0.57;0.57;;;;;;;;;;4883651;29;20410;-57
2021/12/29 13:53:30;;;;;;;0.30;0.30;;;;;;;;;;4884273;29;20048;-58
2021/12/29 13:55:56;;;;;;;0.30;0.30;;;;;;;;;;4884653;29;20071;-58
2021/12/29 13:58:24;;;;;;;0.32;0.32;;;;;;;;;;4885743;29;20147;-58
2021/12/29 14:00:50;;;;;;;0.30;0.30;;;;;;;;;;4888531;29;20044;-59
2021/12/29 14:03:16;;;;;;;0.30;0.30;;;;;;;;;;4886700;29;20726;-58
2021/12/29 14:05:43;;;;;;;0.30;0.30;;;;;;;;;;4884339;29;20642;-58
2021/12/29 14:08:10;;;;;;;0.30;0.30;;;;;;;;;;4889101;29;20545;-58
2021/12/29 14:10:36;;;;;;;0.38;0.38;;;;;;;;;;4885184;29;20081;-58
2021/12/29 14:13:10;;;;;;;0.30;0.30;;;;;;;;;;4885691;29;20044;-58
2021/12/29 14:15:36;;;;;;;0.35;0.35;;;;;;;;;;4884951;29;20679;-58
2021/12/29 14:18:14;;;;;;;0.30;0.30;;;;;;;;;;4882588;29;20823;-58
2021/12/29 14:20:40;;;;;;;0.30;0.30;;;;;;;;;;4882860;29;20087;-59
2021/12/29 14:23:06;;;;;;;0.30;0.30;;;;;;;;;;4882995;29;20135;-58
2021/12/29 14:25:33;;;;;;;0.30;0.30;;;;;;;;;;4882136;29;20056;-58
2021/12/29 14:27:59;;;;;;;0.28;0.28;;;;;;;;;;4884187;29;20065;-59
2021/12/29 14:30:26;;;;;;;0.32;0.32;;;;;;;;;;4882954;29;20036;-59
2021/12/29 14:33:03;;;;;;;1.42;0.75;;;;;;;;;;4882968;29;20139;-58
2021/12/29 14:35:31;;;;;;;0.30;0.30;;;;;;;;;;4882937;29;20211;-58
2021/12/29 14:37:57;;;;;;;0.30;0.30;;;;;;;;;;4883329;29;20553;-59
2021/12/29 14:40:23;;;;;;;0.32;0.32;;;;;;;;;;4881785;29;20506;-59
2021/12/29 14:42:49;;;;;;;0.40;0.40;;;;;;;;;;4883985;29;20047;-58
2021/12/29 14:45:15;;;;;;;0.30;0.30;;;;;;;;;;4880652;29;20060;-59
2021/12/29 14:47:45;;;;;;;0.32;0.32;;;;;;;;;;4880423;29;20045;-59
2021/12/29 14:50:14;;;;;;;0.40;0.30;;;;;;;;;;4883025;29;20045;-60
2021/12/29 14:52:45;;;;;;;0.75;0.75;;;;;;;;;;4882780;29;20060;-58